createdAt,value
2023-01-06T00:01:18.524Z,99.90
2023-01-06T00:03:52.162Z,99.90
2023-01-06T00:06:22.891Z,99.90
2023-01-06T00:08:51.049Z,99.90
2023-01-06T00:11:19.336Z,99.90
2023-01-06T00:13:47.201Z,99.90
2023-01-06T00:16:17.955Z,99.90
2023-01-06T00:18:46.301Z,99.90
2023-01-06T00:21:16.664Z,99.90
2023-01-06T00:23:44.578Z,99.80
2023-01-06T00:26:12.614Z,99.50
2023-01-06T00:28:40.548Z,99.80
2023-01-06T00:31:10.192Z,99.80
2023-01-06T00:33:38.651Z,99.90
2023-01-06T00:36:08.165Z,99.70
2023-01-06T00:38:38.121Z,99.90
2023-01-06T00:41:26.934Z,99.90
2023-01-06T00:43:54.926Z,99.90
2023-01-06T00:46:25.404Z,99.90
2023-01-06T00:49:06.053Z,99.90
2023-01-06T00:51:35.741Z,99.90
2023-01-06T00:54:05.381Z,99.90
2023-01-06T00:56:33.471Z,99.90
2023-01-06T00:59:03.594Z,99.90
2023-01-06T01:01:31.580Z,99.90
2023-01-06T01:03:59.581Z,99.90
2023-01-06T01:06:27.534Z,99.90
2023-01-06T01:08:56.072Z,99.70
2023-01-06T01:11:39.878Z,99.90
2023-01-06T01:14:07.924Z,99.90
2023-01-06T01:16:35.890Z,99.90
2023-01-06T01:19:03.880Z,99.90
2023-01-06T01:21:31.909Z,99.90
2023-01-06T01:23:59.948Z,99.90
2023-01-06T01:26:29.300Z,99.90
2023-01-06T01:28:57.205Z,99.90
2023-01-06T01:31:25.302Z,99.90
2023-01-06T01:33:53.255Z,99.90
2023-01-06T01:36:21.176Z,99.90
2023-01-06T01:38:49.122Z,99.90
2023-01-06T01:41:19.389Z,99.90
2023-01-06T01:43:51.961Z,99.90
2023-01-06T01:46:22.812Z,99.90
2023-01-06T01:48:51.753Z,99.90
2023-01-06T01:51:23.654Z,99.90
2023-01-06T01:53:54.697Z,99.90
2023-01-06T01:56:25.781Z,99.90
2023-01-06T01:58:59.291Z,99.90
2023-01-06T02:01:27.710Z,99.90
2023-01-06T02:03:56.255Z,99.90
2023-01-06T02:06:26.793Z,99.90
2023-01-06T02:09:00.069Z,99.90
2023-01-06T02:11:30.262Z,99.90
2023-01-06T02:14:08.741Z,99.90
2023-01-06T02:16:56.934Z,99.90
2023-01-06T02:20:01.480Z,99.90
2023-01-06T02:22:49.530Z,99.90
2023-01-06T02:25:42.981Z,99.90
2023-01-06T02:28:38.359Z,99.90
2023-01-06T02:31:39.077Z,99.90
2023-01-06T02:34:17.320Z,99.90
2023-01-06T02:36:52.452Z,99.90
2023-01-06T02:39:31.560Z,99.90
2023-01-06T02:42:12.945Z,99.90
2023-01-06T02:44:49.765Z,99.80
2023-01-06T02:47:22.361Z,99.70
2023-01-06T02:49:59.275Z,99.70
2023-01-06T02:52:37.437Z,99.80
2023-01-06T02:55:11.506Z,99.90
2023-01-06T02:57:44.407Z,99.90
2023-01-06T03:00:19.520Z,99.90
2023-01-06T03:02:55.735Z,99.90
2023-01-06T03:05:25.842Z,99.90
2023-01-06T03:07:55.301Z,99.90
2023-01-06T03:10:26.117Z,99.90
2023-01-06T03:12:57.562Z,99.90
2023-01-06T03:15:26.090Z,99.90
2023-01-06T03:17:55.571Z,99.90
2023-01-06T03:20:23.535Z,99.90
2023-01-06T03:22:51.501Z,99.90
2023-01-06T03:25:19.673Z,99.90
2023-01-06T03:27:47.577Z,99.90
2023-01-06T03:30:16.543Z,99.90
2023-01-06T03:32:56.144Z,99.90
2023-01-06T03:35:42.731Z,99.90
2023-01-06T03:38:20.493Z,99.90
2023-01-06T03:40:55.920Z,99.90
2023-01-06T03:43:28.056Z,99.90
2023-01-06T03:46:14.226Z,99.90
2023-01-06T03:48:53.688Z,99.90
2023-01-06T03:51:42.229Z,99.90
2023-01-06T03:54:19.101Z,99.90
2023-01-06T03:56:52.536Z,99.90
2023-01-06T03:59:22.846Z,99.90
2023-01-06T04:01:51.746Z,99.90
2023-01-06T04:04:20.740Z,99.90
2023-01-06T04:06:50.051Z,99.90
2023-01-06T04:09:18.094Z,99.90
2023-01-06T04:12:03.495Z,99.90
2023-01-06T04:14:31.449Z,99.90
2023-01-06T04:16:59.401Z,99.90
2023-01-06T04:19:27.345Z,99.90
2023-01-06T04:21:57.068Z,99.90
2023-01-06T04:24:25.132Z,99.90
2023-01-06T04:26:53.080Z,99.90
2023-01-06T04:29:20.998Z,99.90
2023-01-06T04:31:49.395Z,99.90
2023-01-06T04:34:17.334Z,99.90
2023-01-06T04:36:45.285Z,99.80
2023-01-06T04:39:14.552Z,99.80
2023-01-06T04:41:42.494Z,99.70
2023-01-06T04:44:10.483Z,99.60
2023-01-06T04:46:38.409Z,99.80
2023-01-06T04:49:06.416Z,99.90
2023-01-06T04:51:34.529Z,99.90
2023-01-06T04:54:02.473Z,99.90
2023-01-06T04:56:31.763Z,99.90
2023-01-06T04:59:00.785Z,99.90
2023-01-06T05:01:29.103Z,99.90
2023-01-06T05:03:57.164Z,99.90
2023-01-06T05:06:25.216Z,99.90
2023-01-06T05:08:53.283Z,99.90
2023-01-06T05:11:23.456Z,99.90
2023-01-06T05:13:52.954Z,99.90
2023-01-06T05:16:24.256Z,99.90
2023-01-06T05:18:52.501Z,99.90
2023-01-06T05:21:20.399Z,99.90
2023-01-06T05:23:49.034Z,99.90
2023-01-06T05:26:19.209Z,99.90
2023-01-06T05:28:47.525Z,99.90
2023-01-06T05:31:17.144Z,99.90
2023-01-06T05:33:45.416Z,99.90
2023-01-06T05:36:15.957Z,99.90
2023-01-06T05:38:44.537Z,99.90
2023-01-06T05:41:12.728Z,99.90
2023-01-06T05:43:41.456Z,99.90
2023-01-06T05:46:12.234Z,99.90
2023-01-06T05:48:41.823Z,99.90
2023-01-06T05:51:11.441Z,99.80
2023-01-06T05:53:41.056Z,99.80
2023-01-06T05:56:12.258Z,99.90
2023-01-06T05:58:41.222Z,99.80
2023-01-06T06:01:16.937Z,99.60
2023-01-06T06:03:46.733Z,99.90
2023-01-06T06:06:14.995Z,99.90
2023-01-06T06:08:43.040Z,99.90
2023-01-06T06:11:13.797Z,99.90
2023-01-06T06:13:47.410Z,99.90
2023-01-06T06:16:17.168Z,99.90
2023-01-06T06:18:50.931Z,99.90
2023-01-06T06:21:20.720Z,99.90
2023-01-06T06:23:49.073Z,99.90
2023-01-06T06:26:17.096Z,99.90
2023-01-06T06:28:44.993Z,99.90
2023-01-06T06:31:14.823Z,99.90
2023-01-06T06:33:42.840Z,99.90
2023-01-06T06:36:15.794Z,99.90
2023-01-06T06:38:44.118Z,99.90
2023-01-06T06:41:12.429Z,99.90
2023-01-06T06:43:41.022Z,99.90
2023-01-06T06:46:09.527Z,99.90
2023-01-06T06:48:38.080Z,99.90
2023-01-06T06:51:07.858Z,99.90
2023-01-06T06:53:38.095Z,99.90
2023-01-06T06:56:07.594Z,99.90
2023-01-06T06:58:35.788Z,99.90
2023-01-06T07:01:05.676Z,99.90
2023-01-06T07:03:33.685Z,99.90
2023-01-06T07:06:03.137Z,99.90
2023-01-06T07:08:33.006Z,99.90
2023-01-06T07:11:02.794Z,99.90
2023-01-06T07:13:30.861Z,99.90
2023-01-06T07:15:59.199Z,99.90
2023-01-06T07:18:27.424Z,99.90
2023-01-06T07:20:55.567Z,99.90
2023-01-06T07:23:24.606Z,99.90
2023-01-06T07:25:54.115Z,99.90
2023-01-06T07:28:23.737Z,99.90
2023-01-06T07:30:52.328Z,99.90
2023-01-06T07:33:20.761Z,99.90
2023-01-06T07:35:49.193Z,99.90
2023-01-06T07:38:17.139Z,99.90
2023-01-06T07:40:45.050Z,99.90
2023-01-06T07:43:13.161Z,99.90
2023-01-06T07:45:42.431Z,99.90
2023-01-06T07:48:10.787Z,99.90
2023-01-06T07:50:38.788Z,99.90
2023-01-06T07:53:06.751Z,99.90
2023-01-06T07:55:34.659Z,99.90
2023-01-06T07:58:06.211Z,99.90
2023-01-06T08:00:34.409Z,99.90
2023-01-06T08:03:07.327Z,99.90
2023-01-06T08:05:38.467Z,99.90
2023-01-06T08:08:06.547Z,99.90
2023-01-06T08:10:34.705Z,99.90
2023-01-06T08:13:02.778Z,99.90
2023-01-06T08:15:30.703Z,99.90
2023-01-06T08:17:58.617Z,99.90
2023-01-06T08:20:27.967Z,99.90
2023-01-06T08:22:55.909Z,99.90
2023-01-06T08:25:23.839Z,99.90
2023-01-06T08:27:52.075Z,99.90
2023-01-06T08:30:21.688Z,99.90
2023-01-06T08:32:50.039Z,99.90
2023-01-06T08:35:18.222Z,99.90
2023-01-06T08:37:47.656Z,99.90
2023-01-06T08:40:15.736Z,99.90
2023-01-06T08:42:43.704Z,99.90
2023-01-06T08:45:13.088Z,99.90
2023-01-06T08:47:41.182Z,99.90
2023-01-06T08:50:09.759Z,99.90
2023-01-06T08:52:37.957Z,99.90
2023-01-06T08:55:07.578Z,99.90
2023-01-06T08:57:35.757Z,99.90
2023-01-06T09:00:04.693Z,99.90
2023-01-06T09:02:32.908Z,99.90
2023-01-06T09:05:01.084Z,99.90
2023-01-06T09:07:29.057Z,99.90
2023-01-06T09:09:56.999Z,99.90
2023-01-06T09:12:26.389Z,99.90
2023-01-06T09:14:54.424Z,99.90
2023-01-06T09:17:22.327Z,99.90
2023-01-06T09:19:50.245Z,99.90
2023-01-06T09:22:18.141Z,99.90
2023-01-06T09:24:46.179Z,99.90
2023-01-06T09:27:14.457Z,99.90
2023-01-06T09:29:43.805Z,99.90
2023-01-06T09:32:11.766Z,99.90
2023-01-06T09:34:39.853Z,99.90
2023-01-06T09:37:08.452Z,99.90
2023-01-06T09:39:37.155Z,99.90
2023-01-06T09:42:18.724Z,99.90
2023-01-06T09:44:53.407Z,99.90
2023-01-06T09:47:24.393Z,99.90
2023-01-06T09:49:58.292Z,99.90
2023-01-06T09:52:30.757Z,99.90
2023-01-06T09:55:02.357Z,99.90
2023-01-06T09:57:34.904Z,99.90
2023-01-06T10:00:06.979Z,99.90
2023-01-06T10:02:38.440Z,99.90
2023-01-06T10:05:20.632Z,99.90
2023-01-06T10:07:54.849Z,99.90
2023-01-06T10:10:32.919Z,99.90
2023-01-06T10:13:11.790Z,99.90
2023-01-06T10:15:49.473Z,99.90
2023-01-06T10:18:31.983Z,99.90
2023-01-06T10:21:07.350Z,99.90
2023-01-06T10:24:00.947Z,99.90
2023-01-06T10:26:31.806Z,99.90
2023-01-06T10:29:05.612Z,99.90
2023-01-06T10:31:40.042Z,99.90
2023-01-06T10:34:17.116Z,99.90
2023-01-06T10:36:49.364Z,99.90
2023-01-06T10:39:21.527Z,99.90
2023-01-06T10:42:19.394Z,99.90
2023-01-06T10:44:47.639Z,99.90
2023-01-06T10:47:25.247Z,99.90
2023-01-06T10:49:53.276Z,99.90
2023-01-06T10:52:23.246Z,99.90
2023-01-06T10:54:54.698Z,99.90
2023-01-06T10:57:26.879Z,99.90
2023-01-06T11:00:15.303Z,99.90
2023-01-06T11:02:46.792Z,99.90
2023-01-06T11:05:16.537Z,99.90
2023-01-06T11:07:56.869Z,99.90
2023-01-06T11:10:32.337Z,99.90
2023-01-06T11:13:03.049Z,99.90
2023-01-06T11:15:37.728Z,99.90
2023-01-06T11:18:18.707Z,99.90
2023-01-06T11:20:47.804Z,99.90
2023-01-06T11:23:22.820Z,99.90
2023-01-06T11:26:16.989Z,99.90
2023-01-06T11:28:46.843Z,99.90
2023-01-06T11:31:21.300Z,99.90
2023-01-06T11:33:53.925Z,99.90
2023-01-06T11:36:23.732Z,99.90
2023-01-06T11:38:56.347Z,99.90
2023-01-06T11:41:29.621Z,99.90
2023-01-06T11:44:08.742Z,99.90
2023-01-06T11:46:38.691Z,99.90
2023-01-06T11:49:16.987Z,99.90
2023-01-06T11:51:50.076Z,99.90
2023-01-06T11:54:37.292Z,99.90
2023-01-06T11:57:24.065Z,99.90
2023-01-06T12:00:14.142Z,99.90
2023-01-06T12:02:49.608Z,99.90
2023-01-06T12:05:26.560Z,99.60
2023-01-06T12:07:57.610Z,99.80
2023-01-06T12:10:31.319Z,99.70
2023-01-06T12:12:59.605Z,99.80
2023-01-06T12:15:31.517Z,99.50
2023-01-06T12:18:04.660Z,99.80
2023-01-06T12:20:36.917Z,99.60
2023-01-06T12:23:08.396Z,99.80
2023-01-06T12:25:40.364Z,99.90
2023-01-06T12:28:15.573Z,99.80
2023-01-06T12:30:51.852Z,99.90
2023-01-06T12:33:25.768Z,99.90
2023-01-06T12:35:57.437Z,99.90
2023-01-06T12:38:37.291Z,99.90
2023-01-06T12:41:10.185Z,99.90
2023-01-06T12:43:42.473Z,99.90
2023-01-06T12:46:16.326Z,99.90
2023-01-06T12:48:49.073Z,99.80
2023-01-06T12:51:24.176Z,99.60
2023-01-06T12:53:58.987Z,99.60
2023-01-06T12:56:44.135Z,99.60
2023-01-06T12:59:22.618Z,99.80
2023-01-06T13:01:55.676Z,99.70
2023-01-06T13:05:02.286Z,99.60
2023-01-06T13:07:43.548Z,98.90
2023-01-06T13:10:26.030Z,98.90
2023-01-06T13:13:18.513Z,99.10
2023-01-06T13:15:47.423Z,98.90
2023-01-06T13:18:19.912Z,98.80
2023-01-06T13:20:52.577Z,98.40
2023-01-06T13:23:46.085Z,98.70
2023-01-06T13:26:41.743Z,98.80
2023-01-06T13:29:19.374Z,98.50
2023-01-06T13:32:41.772Z,98.50
2023-01-06T13:35:45.255Z,98.70
2023-01-06T13:38:28.233Z,98.50
2023-01-06T13:41:02.498Z,98.10
2023-01-06T13:43:32.643Z,98.60
2023-01-06T13:46:03.418Z,98.70
2023-01-06T13:48:37.692Z,98.70
2023-01-06T13:51:10.304Z,98.50
2023-01-06T13:53:40.387Z,98.80
2023-01-06T13:56:43.391Z,99.00
2023-01-06T13:59:21.201Z,98.80
2023-01-06T14:01:49.558Z,99.20
2023-01-06T14:04:57.223Z,99.10
2023-01-06T14:07:34.108Z,99.00
2023-01-06T14:10:03.996Z,98.80
2023-01-06T14:12:37.224Z,98.90
2023-01-06T14:15:08.044Z,99.10
2023-01-06T14:17:41.762Z,99.10
2023-01-06T14:20:27.251Z,98.80
2023-01-06T14:23:04.287Z,98.60
2023-01-06T14:25:37.169Z,98.70
2023-01-06T14:28:29.395Z,98.70
2023-01-06T14:31:46.378Z,98.70
2023-01-06T14:34:16.432Z,98.80
2023-01-06T14:36:45.018Z,98.90
2023-01-06T14:39:22.066Z,98.90
2023-01-06T14:41:56.606Z,98.90
2023-01-06T14:44:32.254Z,99.10
2023-01-06T14:47:03.812Z,99.00
2023-01-06T14:49:38.298Z,99.10
2023-01-06T14:52:13.388Z,99.10
2023-01-06T14:54:45.624Z,99.30
2023-01-06T14:57:25.985Z,99.40
2023-01-06T15:00:13.735Z,99.40
2023-01-06T15:02:46.701Z,99.50
2023-01-06T15:05:23.945Z,99.30
2023-01-06T15:08:04.297Z,99.40
2023-01-06T15:10:35.324Z,99.50
2023-01-06T15:13:03.734Z,99.40
2023-01-06T15:15:34.497Z,99.30
2023-01-06T15:18:03.376Z,99.30
2023-01-06T15:20:34.607Z,99.20
2023-01-06T15:23:03.469Z,99.30
2023-01-06T15:25:32.866Z,99.30
2023-01-06T15:28:00.807Z,99.30
2023-01-06T15:30:34.587Z,99.40
2023-01-06T15:33:04.684Z,99.40
2023-01-06T15:35:33.774Z,99.40
2023-01-06T15:38:05.268Z,99.30
2023-01-06T15:40:33.719Z,99.30
2023-01-06T15:43:01.955Z,99.20
2023-01-06T15:45:33.293Z,99.30
2023-01-06T15:48:09.924Z,99.30
2023-01-06T15:50:38.212Z,99.20
2023-01-06T15:53:08.836Z,99.30
2023-01-06T15:55:40.375Z,99.30
2023-01-06T15:58:10.569Z,99.40
2023-01-06T16:00:44.961Z,99.40
2023-01-06T16:03:20.060Z,99.30
2023-01-06T16:05:51.040Z,99.40
2023-01-06T16:08:25.844Z,99.50
2023-01-06T16:11:40.805Z,99.20
2023-01-06T16:14:25.693Z,99.30
2023-01-06T16:16:55.263Z,99.60
2023-01-06T16:19:24.588Z,99.80
2023-01-06T16:21:54.811Z,99.90
2023-01-06T16:24:26.476Z,99.80
2023-01-06T16:26:57.249Z,99.90
2023-01-06T16:29:29.141Z,99.80
2023-01-06T16:32:00.370Z,99.50
2023-01-06T16:34:32.599Z,99.30
2023-01-06T16:37:01.810Z,99.20
2023-01-06T16:39:29.740Z,99.10
2023-01-06T16:42:38.803Z,99.30
2023-01-06T16:45:11.356Z,99.10
2023-01-06T16:47:39.756Z,99.40
2023-01-06T16:50:19.449Z,99.10
2023-01-06T16:52:50.839Z,99.20
2023-01-06T16:55:20.268Z,99.20
2023-01-06T16:57:50.720Z,99.20
2023-01-06T17:00:21.303Z,98.80
2023-01-06T17:02:50.816Z,98.80
2023-01-06T17:05:26.396Z,99.00
2023-01-06T17:07:57.764Z,99.20
2023-01-06T17:10:26.394Z,99.60
2023-01-06T17:13:14.972Z,99.70
2023-01-06T17:15:43.419Z,99.60
2023-01-06T17:18:23.158Z,99.60
2023-01-06T17:20:55.755Z,99.80
2023-01-06T17:23:24.641Z,99.90
2023-01-06T17:25:59.397Z,99.60
2023-01-06T17:28:27.425Z,99.80
2023-01-06T17:30:55.377Z,99.70
2023-01-06T17:33:23.275Z,99.90
2023-01-06T17:35:56.816Z,99.90
2023-01-06T17:38:26.820Z,99.90
2023-01-06T17:40:56.893Z,99.90
2023-01-06T17:43:31.160Z,99.90
2023-01-06T17:45:59.230Z,99.90
2023-01-06T17:48:27.659Z,99.90
2023-01-06T17:50:58.437Z,99.90
2023-01-06T17:53:48.458Z,99.90
2023-01-06T17:56:16.814Z,99.90
2023-01-06T17:58:46.500Z,99.90
2023-01-06T18:01:20.563Z,99.90
2023-01-06T18:03:49.810Z,99.90
2023-01-06T18:06:27.170Z,99.90
2023-01-06T18:09:02.981Z,99.70
2023-01-06T18:11:36.260Z,99.60
2023-01-06T18:14:18.744Z,99.50
2023-01-06T18:16:48.227Z,99.30
2023-01-06T18:19:28.920Z,99.50
2023-01-06T18:21:58.796Z,99.60
2023-01-06T18:24:33.190Z,99.60
2023-01-06T18:27:02.315Z,99.80
2023-01-06T18:29:36.348Z,99.40
2023-01-06T18:32:24.622Z,99.50
2023-01-06T18:34:54.236Z,99.40
2023-01-06T18:37:27.963Z,99.30
2023-01-06T18:39:59.700Z,99.50
2023-01-06T18:42:30.273Z,99.50
2023-01-06T18:45:23.386Z,99.60
2023-01-06T18:47:55.099Z,99.50
2023-01-06T18:50:30.183Z,99.40
2023-01-06T18:53:02.134Z,99.30
2023-01-06T18:55:37.482Z,99.30
2023-01-06T18:58:29.832Z,99.40
2023-01-06T19:00:59.849Z,99.10
2023-01-06T19:03:34.700Z,99.10
2023-01-06T19:06:35.696Z,99.30
2023-01-06T19:09:26.967Z,99.20
2023-01-06T19:12:24.918Z,99.30
2023-01-06T19:14:54.427Z,99.10
2023-01-06T19:17:25.006Z,99.30
2023-01-06T19:19:53.399Z,99.20
2023-01-06T19:22:25.610Z,99.20
2023-01-06T19:25:00.275Z,99.10
2023-01-06T19:27:49.887Z,99.10
2023-01-06T19:30:33.273Z,99.10
2023-01-06T19:33:34.935Z,99.30
2023-01-06T19:36:47.162Z,99.20
2023-01-06T19:39:27.227Z,99.10
2023-01-06T19:42:01.447Z,99.30
2023-01-06T19:44:33.457Z,99.30
2023-01-06T19:47:10.085Z,99.50
2023-01-06T19:49:43.624Z,99.70
2023-01-06T19:52:28.301Z,99.80
2023-01-06T19:54:59.079Z,99.90
2023-01-06T19:57:35.375Z,99.30
2023-01-06T20:00:04.216Z,99.80
2023-01-06T20:02:37.578Z,99.60
2023-01-06T20:05:06.085Z,99.50
2023-01-06T20:07:34.024Z,99.60
2023-01-06T20:10:01.904Z,99.60
2023-01-06T20:12:31.175Z,99.80
2023-01-06T20:14:59.134Z,99.60
2023-01-06T20:17:27.055Z,99.40
2023-01-06T20:19:54.976Z,99.30
2023-01-06T20:22:23.462Z,99.10
2023-01-06T20:24:51.358Z,98.90
2023-01-06T20:27:19.276Z,99.00
2023-01-06T20:29:48.923Z,98.90
2023-01-06T20:32:16.886Z,98.80
2023-01-06T20:34:44.866Z,98.80
2023-01-06T20:37:12.889Z,98.90
2023-01-06T20:39:40.769Z,99.00
2023-01-06T20:42:08.918Z,98.90
2023-01-06T20:44:36.919Z,98.70
2023-01-06T20:47:06.295Z,99.10
2023-01-06T20:49:34.453Z,98.80
2023-01-06T20:52:02.447Z,98.90
2023-01-06T20:54:30.423Z,99.20
2023-01-06T20:56:58.402Z,99.50
2023-01-06T20:59:26.361Z,99.80
2023-01-06T21:01:54.336Z,99.70
2023-01-06T21:04:23.782Z,99.70
2023-01-06T21:06:51.712Z,99.90
2023-01-06T21:09:19.675Z,99.90
2023-01-06T21:11:47.575Z,99.90
2023-01-06T21:14:15.517Z,99.80
2023-01-06T21:16:43.561Z,99.80
2023-01-06T21:19:11.651Z,99.60
2023-01-06T21:21:40.912Z,99.50
2023-01-06T21:24:09.117Z,99.60
2023-01-06T21:26:37.363Z,99.90
2023-01-06T21:29:05.272Z,99.70
2023-01-06T21:31:33.159Z,99.50
2023-01-06T21:34:01.192Z,99.50
2023-01-06T21:36:29.157Z,99.40
2023-01-06T21:38:58.422Z,99.70
2023-01-06T21:41:43.663Z,99.30
2023-01-06T21:44:11.916Z,99.70
2023-01-06T21:46:40.357Z,99.40
2023-01-06T21:49:08.544Z,99.40
2023-01-06T21:51:37.201Z,99.40
2023-01-06T21:54:07.119Z,99.20
2023-01-06T21:56:36.270Z,99.40
2023-01-06T21:59:04.327Z,99.30
2023-01-06T22:01:32.363Z,99.20
2023-01-06T22:04:00.363Z,99.10
2023-01-06T22:06:29.819Z,99.20
2023-01-06T22:09:00.570Z,99.10
2023-01-06T22:11:30.525Z,99.20
2023-01-06T22:13:58.797Z,99.40
2023-01-06T22:16:27.263Z,99.60
2023-01-06T22:18:57.180Z,99.60
2023-01-06T22:21:25.813Z,99.40
2023-01-06T22:23:55.605Z,99.80
2023-01-06T22:26:23.551Z,99.50
2023-01-06T22:28:52.830Z,99.70
2023-01-06T22:31:20.740Z,99.90
2023-01-06T22:33:48.659Z,99.90
2023-01-06T22:36:16.541Z,99.90
2023-01-06T22:38:44.477Z,99.90
2023-01-06T22:41:12.557Z,99.80
2023-01-06T22:43:40.510Z,99.90
2023-01-06T22:46:09.842Z,99.90
2023-01-06T22:48:37.830Z,99.90
2023-01-06T22:51:07.396Z,99.90
2023-01-06T22:53:35.542Z,99.90
2023-01-06T22:56:05.611Z,99.90
2023-01-06T22:58:34.788Z,99.90
2023-01-06T23:01:03.344Z,99.90
2023-01-06T23:03:33.037Z,99.90
2023-01-06T23:06:03.435Z,99.90
2023-01-06T23:08:33.069Z,99.90
2023-01-06T23:11:01.795Z,99.90
2023-01-06T23:13:30.309Z,99.90
2023-01-06T23:16:03.349Z,99.90
2023-01-06T23:18:33.543Z,99.90
2023-01-06T23:21:02.984Z,99.90
2023-01-06T23:23:32.942Z,99.90
2023-01-06T23:26:05.232Z,99.90
2023-01-06T23:28:34.251Z,99.80
2023-01-06T23:31:04.174Z,99.90
2023-01-06T23:33:33.748Z,99.90
2023-01-06T23:36:02.788Z,99.90
2023-01-06T23:38:31.361Z,99.90
2023-01-06T23:41:03.769Z,99.90
2023-01-06T23:43:33.113Z,99.90
2023-01-06T23:46:02.266Z,99.90
2023-01-06T23:48:33.191Z,99.90
2023-01-06T23:51:01.716Z,99.90
2023-01-06T23:53:30.168Z,99.90
2023-01-06T23:56:00.307Z,99.90
2023-01-06T23:58:29.745Z,99.90
